createdAt,value
2018-04-10T00:00:37.838Z,4.93
2018-04-10T00:03:05.451Z,5.23
2018-04-10T00:05:33.049Z,7.60
2018-04-10T00:08:00.659Z,5.53
2018-04-10T00:10:28.251Z,6.07
2018-04-10T00:12:55.832Z,5.40
2018-04-10T00:15:23.434Z,7.97
2018-04-10T00:17:50.993Z,6.33
2018-04-10T00:20:18.609Z,8.23
2018-04-10T00:22:46.159Z,4.60
2018-04-10T00:25:13.767Z,6.73
2018-04-10T00:27:41.419Z,7.03
2018-04-10T00:30:09.032Z,7.77
2018-04-10T00:32:36.627Z,6.10
2018-04-10T00:35:04.180Z,6.60
2018-04-10T00:37:31.764Z,9.13
2018-04-10T00:39:59.319Z,5.93
2018-04-10T00:42:26.969Z,7.37
2018-04-10T00:44:54.565Z,4.73
2018-04-10T00:47:22.151Z,8.33
2018-04-10T00:49:49.768Z,7.40
2018-04-10T00:52:17.363Z,7.30
2018-04-10T00:54:44.919Z,8.43
2018-04-10T00:57:12.526Z,6.77
2018-04-10T00:59:40.135Z,7.73
2018-04-10T01:02:07.784Z,6.67
2018-04-10T01:04:35.404Z,6.57
2018-04-10T01:07:03.052Z,6.93
2018-04-10T01:09:30.638Z,7.40
2018-04-10T01:11:58.219Z,7.50
2018-04-10T01:14:25.815Z,7.47
2018-04-10T01:16:53.369Z,7.47
2018-04-10T01:19:21.018Z,7.83
2018-04-10T01:21:48.603Z,6.63
2018-04-10T01:24:16.175Z,7.57
2018-04-10T01:26:43.764Z,9.07
2018-04-10T01:29:11.466Z,5.10
2018-04-10T01:31:39.053Z,6.23
2018-04-10T01:34:06.715Z,8.30
2018-04-10T01:36:34.269Z,7.67
2018-04-10T01:39:01.820Z,6.67
2018-04-10T01:41:29.423Z,5.20
2018-04-10T01:43:56.976Z,5.60
2018-04-10T01:46:24.639Z,7.63
2018-04-10T01:48:52.198Z,10.47
2018-04-10T01:51:20.105Z,7.30
2018-04-10T01:53:48.095Z,9.80
2018-04-10T01:56:15.749Z,4.67
2018-04-10T01:58:44.049Z,6.60
2018-04-10T02:01:11.724Z,9.53
2018-04-10T02:03:39.755Z,5.10
2018-04-10T02:06:08.429Z,6.63
2018-04-10T02:08:36.464Z,7.30
2018-04-10T02:11:04.653Z,6.27
2018-04-10T02:13:32.699Z,4.97
2018-04-10T02:16:00.528Z,6.80
2018-04-10T02:18:28.448Z,7.17
2018-04-10T02:20:56.606Z,5.60
2018-04-10T02:23:24.532Z,9.60
2018-04-10T02:25:52.135Z,6.53
2018-04-10T02:28:19.727Z,8.67
2018-04-10T02:30:47.277Z,6.83
2018-04-10T02:33:15.227Z,7.63
2018-04-10T02:35:43.840Z,9.07
2018-04-10T02:38:12.223Z,7.97
2018-04-10T02:40:40.108Z,8.00
2018-04-10T02:43:07.762Z,5.73
2018-04-10T02:45:35.308Z,5.73
2018-04-10T02:48:03.981Z,8.30
2018-04-10T02:50:31.632Z,6.93
2018-04-10T02:52:59.310Z,6.77
2018-04-10T02:55:30.802Z,7.17
2018-04-10T02:57:58.908Z,5.90
2018-04-10T03:00:26.471Z,9.17
2018-04-10T03:02:54.491Z,9.50
2018-04-10T03:05:22.484Z,9.73
2018-04-10T03:07:50.288Z,8.87
2018-04-10T03:10:18.295Z,9.17
2018-04-10T03:12:46.375Z,8.33
2018-04-10T03:15:14.250Z,10.27
2018-04-10T03:17:41.911Z,5.60
2018-04-10T03:20:09.959Z,9.63
2018-04-10T03:22:37.980Z,7.73
2018-04-10T03:25:06.134Z,10.63
2018-04-10T03:27:34.136Z,10.23
2018-04-10T03:30:02.828Z,8.80
2018-04-10T03:32:30.986Z,8.43
2018-04-10T03:34:59.572Z,10.97
2018-04-10T03:37:27.375Z,14.97
2018-04-10T03:39:54.971Z,8.13
2018-04-10T03:42:23.749Z,9.93
2018-04-10T03:44:52.260Z,8.70
2018-04-10T03:47:20.460Z,13.37
2018-04-10T03:49:48.179Z,10.37
2018-04-10T03:52:16.758Z,13.17
2018-04-10T03:54:45.407Z,13.13
2018-04-10T03:57:12.985Z,11.33
2018-04-10T03:59:40.668Z,10.50
2018-04-10T04:02:08.223Z,14.47
2018-04-10T04:04:36.179Z,15.37
2018-04-10T04:07:04.277Z,11.53
2018-04-10T04:09:32.292Z,13.77
2018-04-10T04:12:00.452Z,18.13
2018-04-10T04:14:28.835Z,13.40
2018-04-10T04:17:20.217Z,9.90
2018-04-10T04:20:00.632Z,15.40
2018-04-10T04:22:39.804Z,16.77
2018-04-10T04:25:07.859Z,20.83
2018-04-10T04:27:35.908Z,11.43
2018-04-10T04:30:03.811Z,19.07
2018-04-10T04:32:31.726Z,23.60
2018-04-10T04:35:00.364Z,13.77
2018-04-10T04:37:28.037Z,22.00
2018-04-10T04:39:55.796Z,18.53
2018-04-10T04:42:23.672Z,25.73
2018-04-10T04:44:51.484Z,19.27
2018-04-10T04:47:19.172Z,30.33
2018-04-10T04:49:47.253Z,27.90
2018-04-10T04:52:15.251Z,37.07
2018-04-10T04:54:46.850Z,30.73
2018-04-10T04:57:14.859Z,35.30
2018-04-10T04:59:42.524Z,38.37
2018-04-10T05:02:10.169Z,41.17
2018-04-10T05:04:38.259Z,38.17
2018-04-10T05:07:06.354Z,36.27
2018-04-10T05:09:34.401Z,37.80
2018-04-10T05:12:02.505Z,36.17
2018-04-10T05:14:30.148Z,33.60
2018-04-10T05:16:58.218Z,32.60
2018-04-10T05:19:26.496Z,41.33
2018-04-10T05:21:54.487Z,53.30
2018-04-10T05:24:22.423Z,32.87
2018-04-10T05:26:50.147Z,32.57
2018-04-10T05:29:18.259Z,25.70
2018-04-10T05:31:47.040Z,32.57
2018-04-10T05:34:14.819Z,32.30
2018-04-10T05:36:43.056Z,22.73
2018-04-10T05:39:11.151Z,24.40
2018-04-10T05:41:38.879Z,22.63
2018-04-10T05:44:06.926Z,22.13
2018-04-10T05:46:35.118Z,29.63
2018-04-10T05:49:02.676Z,31.70
